createdAt,value
2022-11-01T05:56:29.757Z,32.25
2022-11-01T06:01:50.834Z,31.80
2022-11-01T06:07:12.043Z,33.20
2022-11-01T06:12:33.068Z,33.38
2022-11-01T06:17:58.454Z,32.47
2022-11-01T06:23:19.454Z,31.70
2022-11-01T06:28:40.510Z,32.58
2022-11-01T06:39:21.652Z,30.55
2022-11-01T06:44:42.661Z,30.00
2022-11-01T06:50:04.619Z,31.33
2022-11-01T06:55:27.216Z,31.65
2022-11-01T07:00:47.964Z,29.77
2022-11-01T07:06:08.801Z,30.50
2022-11-01T07:11:31.693Z,27.52
2022-11-01T07:16:53.162Z,27.52
2022-11-01T07:22:14.818Z,31.35
2022-11-01T07:27:36.847Z,29.35
2022-11-01T07:33:04.173Z,29.45
2022-11-01T07:38:25.502Z,27.40
2022-11-01T07:43:46.270Z,28.85
2022-11-01T07:49:07.183Z,28.98
2022-11-01T07:54:28.016Z,24.15
2022-11-01T07:59:48.827Z,27.10
2022-11-01T08:05:11.302Z,27.20
2022-11-01T08:10:33.137Z,25.20
2022-11-01T08:15:54.290Z,25.05
2022-11-01T08:21:18.770Z,23.65
2022-11-01T08:26:39.693Z,22.98
2022-11-01T08:32:00.499Z,21.40
2022-11-01T08:37:21.183Z,21.38
2022-11-01T08:42:42.066Z,21.63
2022-11-01T08:53:26.108Z,21.45
2022-11-01T08:58:49.378Z,21.08
2022-11-01T09:04:10.462Z,20.52
2022-11-01T09:09:31.375Z,20.38
2022-11-01T09:14:52.569Z,19.13
2022-11-01T09:20:15.214Z,20.08
2022-11-01T09:25:36.985Z,19.55
2022-11-01T09:31:19.544Z,18.27
2022-11-01T09:36:41.569Z,18.63
2022-11-01T09:42:06.447Z,17.73
2022-11-01T09:47:29.981Z,17.23
2022-11-01T09:52:53.007Z,17.30
2022-11-01T09:58:28.355Z,16.85
2022-11-01T10:04:26.846Z,17.30
2022-11-01T10:10:02.510Z,15.23
2022-11-01T10:15:32.368Z,15.68
2022-11-01T10:20:55.800Z,16.73
2022-11-01T10:26:21.450Z,15.38
2022-11-01T10:31:46.328Z,16.35
2022-11-01T10:37:22.715Z,16.88
2022-11-01T10:42:43.802Z,16.23
2022-11-01T10:48:05.345Z,14.45
2022-11-01T10:53:31.479Z,15.57
2022-11-01T10:59:04.487Z,13.88
2022-11-01T11:04:26.227Z,14.18
2022-11-01T11:09:50.162Z,12.65
2022-11-01T11:15:19.631Z,13.50
2022-11-01T11:20:41.129Z,14.35
2022-11-01T11:26:05.067Z,12.32
2022-11-01T11:31:32.614Z,12.60
2022-11-01T11:36:55.103Z,11.68
2022-11-01T11:42:16.071Z,11.88
2022-11-01T11:47:38.216Z,13.05
2022-11-01T11:53:15.602Z,11.25
2022-11-01T11:58:43.088Z,10.77
2022-11-01T12:04:19.145Z,11.15
2022-11-01T12:09:46.870Z,9.85
2022-11-01T12:15:29.934Z,9.43
2022-11-01T12:20:52.773Z,8.65
2022-11-01T12:26:16.855Z,7.95
2022-11-01T12:31:41.666Z,8.48
2022-11-01T12:37:41.485Z,7.47
2022-11-01T12:43:16.531Z,7.93
2022-11-01T12:48:43.072Z,7.32
2022-11-01T12:54:15.014Z,7.22
2022-11-01T12:59:38.665Z,7.20
2022-11-01T13:05:30.561Z,6.55
2022-11-01T13:10:52.844Z,6.93
2022-11-01T13:16:27.738Z,7.32
2022-11-01T13:22:38.019Z,6.22
2022-11-01T13:28:36.039Z,6.72
2022-11-01T13:34:33.576Z,6.38
2022-11-01T13:39:54.651Z,6.43
2022-11-01T13:45:30.599Z,6.70
2022-11-01T13:51:11.533Z,6.18
2022-11-01T13:56:40.203Z,6.25
2022-11-01T14:02:22.977Z,5.38
2022-11-01T14:07:43.964Z,5.88
2022-11-01T14:13:07.864Z,6.00
2022-11-01T14:18:49.884Z,5.90
2022-11-01T14:24:34.830Z,5.35
2022-11-01T14:29:56.819Z,6.05
2022-11-01T14:35:37.992Z,7.28
2022-11-01T14:41:00.317Z,6.78
2022-11-01T14:46:31.541Z,6.13
2022-11-01T14:52:02.786Z,5.60
2022-11-01T14:57:29.369Z,6.07
2022-11-01T15:02:50.688Z,5.88
2022-11-01T15:08:22.456Z,6.07
2022-11-01T15:13:45.602Z,5.82
2022-11-01T15:19:14.922Z,5.78
2022-11-01T15:24:36.010Z,6.53
2022-11-01T15:29:56.937Z,6.78
2022-11-01T15:35:26.374Z,7.07
2022-11-01T15:40:50.389Z,6.30
2022-11-01T15:46:11.492Z,6.70
2022-11-01T15:51:37.558Z,6.75
2022-11-01T15:57:03.253Z,6.45
2022-11-01T16:02:35.287Z,6.68
2022-11-01T16:07:56.559Z,6.50
2022-11-01T16:13:19.907Z,15.32
2022-11-01T16:18:45.126Z,7.70
2022-11-01T16:24:09.598Z,8.25
2022-11-01T16:29:42.673Z,7.90
2022-11-01T16:35:29.508Z,8.15
2022-11-01T16:40:54.996Z,7.40
2022-11-01T16:46:16.119Z,8.55
2022-11-01T16:51:36.986Z,8.85
2022-11-01T16:56:58.685Z,10.23
2022-11-01T17:02:23.782Z,10.00
2022-11-01T17:07:45.563Z,10.75
2022-11-01T17:13:07.934Z,10.73
2022-11-01T17:18:31.991Z,11.60
2022-11-01T17:23:53.277Z,11.60
2022-11-01T17:29:16.993Z,10.15
2022-11-01T17:34:38.879Z,10.55
2022-11-01T17:40:01.017Z,10.93
2022-11-01T17:45:22.855Z,9.90
2022-11-01T17:50:44.514Z,9.80
2022-11-01T17:56:06.462Z,9.18
2022-11-01T18:01:28.652Z,9.27
2022-11-01T18:06:50.501Z,9.40
2022-11-01T18:12:39.477Z,50.80
2022-11-01T18:18:15.589Z,10.23
2022-11-01T18:23:36.889Z,9.05
2022-11-01T18:29:10.259Z,9.30
2022-11-01T18:34:50.077Z,9.43
2022-11-01T18:40:11.490Z,9.20
2022-11-01T18:45:57.699Z,9.38
2022-11-01T18:51:26.616Z,9.32
2022-11-01T18:56:51.206Z,8.63
2022-11-01T19:02:12.406Z,9.55
2022-11-01T19:07:57.118Z,9.38
2022-11-01T19:13:23.730Z,10.05
2022-11-01T19:18:46.176Z,9.27
2022-11-01T19:24:29.771Z,8.82
2022-11-01T19:29:55.381Z,8.68
2022-11-01T19:35:22.084Z,9.65
2022-11-01T19:40:44.126Z,9.57
2022-11-01T19:46:04.935Z,9.13
2022-11-01T19:51:26.645Z,9.13
2022-11-01T19:56:47.630Z,9.27
2022-11-01T20:02:22.582Z,9.07
2022-11-01T20:07:43.535Z,8.90
2022-11-01T20:13:04.780Z,9.32
2022-11-01T20:18:26.993Z,8.10
2022-11-01T20:23:48.336Z,8.82
2022-11-01T20:29:09.565Z,8.80
2022-11-01T20:34:30.534Z,8.30
2022-11-01T20:39:51.640Z,7.50
2022-11-01T20:45:12.567Z,6.88
2022-11-01T20:50:33.999Z,12.63
2022-11-01T20:55:54.831Z,15.32
2022-11-01T21:06:37.211Z,8.60
2022-11-01T21:11:59.043Z,7.95
2022-11-01T21:17:20.345Z,8.27
2022-11-01T21:22:41.283Z,7.63
2022-11-01T21:28:12.108Z,7.55
2022-11-01T21:33:41.665Z,7.43
2022-11-01T21:39:11.187Z,8.23
2022-11-01T21:44:39.743Z,7.90
2022-11-01T21:50:00.802Z,8.02
2022-11-01T22:00:42.226Z,6.53
2022-11-01T22:06:03.115Z,7.45
2022-11-01T22:16:50.109Z,8.90
2022-11-01T22:22:11.138Z,10.88
